Time;durP1;ratioP1;P1;durP2;ratioP2;P2;SDS_P1;SDS_P2;PMS_P1;PMS_P2;Temp;Humidity;BMP_temperature;BMP_pressure;BME280_temperature;BME280_humidity;BME280_pressure;Samples;Min_cycle;Max_cycle;Signal;HPM_P1;HPM_P2
2021/11/11 00:00:26;;;;;;;46.30;27.90;;;;;;;3.33;83.81;101349.09;87982;1284;83965;-67
2021/11/11 00:02:56;;;;;;;45.40;28.20;;;;;;;3.34;83.94;101346.35;88007;1286;100121;-69
2021/11/11 00:05:11;;;;;;;45.40;28.30;;;;;;;3.35;83.88;101343.77;88051;1284;87749;-70
2021/11/11 00:07:23;;;;;;;42.90;27.20;;;;;;;3.36;84.00;101340.25;88033;1286;96059;-75
2021/11/11 00:09:33;;;;;;;40.90;26.90;;;;;;;3.34;84.02;101339.36;87989;1282;81347;-77
2021/11/11 00:11:46;;;;;;;43.40;27.90;;;;;;;3.37;83.94;101340.01;87936;1288;81746;-79
2021/11/11 00:14:03;;;;;;;44.70;28.60;;;;;;;3.41;84.11;101343.44;88044;1286;99312;-77
2021/11/11 00:16:15;;;;;;;43.40;26.90;;;;;;;3.41;83.99;101341.81;88043;1286;87853;-76
2021/11/11 00:18:25;;;;;;;45.20;27.90;;;;;;;3.40;83.91;101338.89;87985;1287;94621;-72
2021/11/11 00:20:36;;;;;;;42.40;28.50;;;;;;;3.37;84.03;101334.64;88035;1275;78007;-73
2021/11/11 00:22:57;;;;;;;45.50;27.00;;;;;;;3.38;84.07;101338.67;88011;1286;81559;-76
2021/11/11 00:25:13;;;;;;;43.80;27.20;;;;;;;3.40;84.20;101334.48;87946;1286;98177;-75
2021/11/11 00:27:22;;;;;;;43.00;26.80;;;;;;;3.39;84.14;101329.18;88009;1286;87980;-75
2021/11/11 00:29:37;;;;;;;43.80;27.10;;;;;;;3.42;84.31;101327.00;88033;1287;93927;-75
2021/11/11 00:31:46;;;;;;;38.90;25.50;;;;;;;3.44;84.12;101325.02;88062;1286;80993;-75
2021/11/11 00:33:58;;;;;;;43.80;29.10;;;;;;;3.45;84.12;101326.38;88061;1287;83513;-76
2021/11/11 00:36:10;;;;;;;45.10;27.60;;;;;;;3.46;84.14;101328.46;88005;1283;97963;-76
2021/11/11 00:38:20;;;;;;;42.30;26.90;;;;;;;3.46;84.20;101329.13;88052;1283;86833;-74
2021/11/11 00:40:32;;;;;;;40.00;26.50;;;;;;;3.46;84.14;101323.31;88049;1287;95264;-75
2021/11/11 00:42:48;;;;;;;43.00;27.80;;;;;;;3.44;84.09;101320.09;88074;1281;79658;-75
2021/11/11 00:44:59;;;;;;;40.10;26.00;;;;;;;3.44;84.13;101324.52;88093;1283;81026;-75
2021/11/11 00:47:09;;;;;;;42.90;27.90;;;;;;;3.44;84.23;101325.54;88013;1287;98987;-71
2021/11/11 00:49:22;;;;;;;38.40;25.90;;;;;;;3.43;84.12;101327.58;88053;1287;88869;-71
2021/11/11 00:51:31;;;;;;;43.90;27.80;;;;;;;3.44;84.08;101330.17;88042;1287;94646;-70
2021/11/11 00:53:43;;;;;;;41.10;26.30;;;;;;;3.43;84.14;101330.45;87971;1286;78791;-68
2021/11/11 00:55:56;;;;;;;44.20;27.10;;;;;;;3.42;84.25;101329.30;88022;1286;81193;-68
2021/11/11 00:58:10;;;;;;;42.40;26.70;;;;;;;3.40;84.17;101334.11;88004;1286;99252;-71
2021/11/11 01:00:22;;;;;;;39.70;26.20;;;;;;;3.35;84.16;101332.47;87940;1286;88796;-71
2021/11/11 01:02:34;;;;;;;41.70;28.00;;;;;;;3.34;84.16;101337.77;87951;1284;95758;-73
2021/11/11 01:04:49;;;;;;;39.90;25.20;;;;;;;3.35;84.10;101335.38;88028;1285;78952;-72
2021/11/11 01:07:01;;;;;;;48.50;26.90;;;;;;;3.34;84.07;101334.40;88065;1287;83257;-73
2021/11/11 01:09:11;;;;;;;43.90;27.50;;;;;;;3.35;84.08;101332.73;88043;1290;99168;-69
2021/11/11 01:11:21;;;;;;;39.30;26.00;;;;;;;3.33;84.04;101331.59;87931;1287;87575;-69
2021/11/11 01:13:39;;;;;;;43.00;25.70;;;;;;;3.32;84.19;101328.09;87987;1286;94592;-72
2021/11/11 01:15:52;;;;;;;43.40;27.40;;;;;;;3.31;83.93;101331.38;87971;1286;81507;-70
2021/11/11 01:18:07;;;;;;;36.20;25.10;;;;;;;3.29;84.05;101322.86;88063;1286;82747;-71
2021/11/11 01:20:22;;;;;;;40.20;26.20;;;;;;;3.26;84.13;101317.23;88030;1286;97830;-71
2021/11/11 01:22:32;;;;;;;42.90;26.00;;;;;;;3.25;84.13;101314.48;87924;1290;87977;-70
2021/11/11 01:24:45;;;;;;;42.40;25.80;;;;;;;3.25;84.16;101311.79;87979;1286;95899;-70
2021/11/11 01:26:55;;;;;;;41.60;25.80;;;;;;;3.24;84.14;101312.56;87978;1287;80717;-67
2021/11/11 01:29:05;;;;;;;41.70;25.70;;;;;;;3.22;84.14;101313.95;88042;1281;82171;-68
2021/11/11 01:31:15;;;;;;;36.90;24.80;;;;;;;3.21;84.04;101314.98;87965;1286;98731;-69
2021/11/11 01:33:28;;;;;;;41.10;25.10;;;;;;;3.22;84.22;101315.07;87964;1290;86853;-71
2021/11/11 01:35:42;;;;;;;39.60;25.20;;;;;;;3.22;84.09;101318.21;88007;1286;94308;-72
2021/11/11 01:37:52;;;;;;;38.50;25.70;;;;;;;3.23;84.24;101318.55;87992;1287;77866;-71
2021/11/11 01:40:04;;;;;;;41.10;26.00;;;;;;;3.24;84.34;101315.81;87926;1284;81891;-73
2021/11/11 01:42:21;;;;;;;38.90;25.80;;;;;;;3.25;84.26;101319.45;87880;1286;98158;-72
2021/11/11 01:44:32;;;;;;;40.30;24.30;;;;;;;3.26;84.33;101316.52;87996;1288;87587;-73
2021/11/11 01:46:44;;;;;;;41.10;24.10;;;;;;;3.25;84.52;101319.05;87878;1288;95839;-73
2021/11/11 01:49:03;;;;;;;42.10;25.30;;;;;;;3.24;84.39;101323.46;87994;1287;80819;-74
2021/11/11 01:51:12;;;;;;;38.30;25.50;;;;;;;3.18;84.21;101331.73;88040;1284;79846;-74
2021/11/11 01:53:29;;;;;;;44.80;25.20;;;;;;;3.15;84.31;101336.27;88016;1286;99386;-70
2021/11/11 01:55:41;;;;;;;40.80;25.50;;;;;;;3.12;84.11;101333.84;88055;1285;88592;-71
2021/11/11 01:57:52;;;;;;;39.20;24.90;;;;;;;3.11;84.27;101332.09;88041;1287;95588;-70
2021/11/11 02:00:09;;;;;;;43.70;26.50;;;;;;;3.12;84.22;101331.16;88071;1283;81394;-70
2021/11/11 02:02:27;;;;;;;43.30;25.60;;;;;;;3.11;84.23;101333.55;88079;1286;82133;-72
2021/11/11 02:04:40;;;;;;;40.20;26.40;;;;;;;3.07;84.16;101328.90;88075;1286;98416;-72
2021/11/11 02:06:50;;;;;;;39.20;24.00;;;;;;;3.01;84.14;101328.84;88054;1286;88007;-73
2021/11/11 02:09:01;;;;;;;38.00;25.30;;;;;;;2.94;84.18;101334.09;88046;1286;94196;-73
2021/11/11 02:11:10;;;;;;;38.10;24.40;;;;;;;2.90;84.19;101335.98;88047;1287;78406;-74
2021/11/11 02:13:20;;;;;;;43.70;25.70;;;;;;;2.86;84.12;101335.80;88074;1284;80783;-71
2021/11/11 02:15:36;;;;;;;44.30;26.00;;;;;;;2.83;84.21;101329.67;88050;1287;99079;-71
2021/11/11 02:17:45;;;;;;;40.10;25.30;;;;;;;2.80;84.38;101330.21;88016;1283;87897;-71
2021/11/11 02:20:09;;;;;;;40.30;24.30;;;;;;;2.77;84.20;101330.67;87998;1286;95300;-74
2021/11/11 02:22:23;;;;;;;39.40;25.20;;;;;;;2.75;84.35;101330.08;88046;1287;79300;-71
2021/11/11 02:24:36;;;;;;;40.30;25.20;;;;;;;2.77;84.36;101325.09;88106;1288;84356;-74
2021/11/11 02:26:46;;;;;;;42.60;25.30;;;;;;;2.78;84.49;101323.51;88051;1287;99078;-75
2021/11/11 02:29:01;;;;;;;41.10;25.30;;;;;;;2.75;84.31;101325.44;88024;1286;88332;-74
2021/11/11 02:31:11;;;;;;;40.00;25.70;;;;;;;2.76;84.55;101323.63;88137;1286;95604;-74
2021/11/11 02:33:27;;;;;;;41.20;24.20;;;;;;;2.76;84.57;101324.70;88054;1287;78424;-73
2021/11/11 02:35:41;;;;;;;40.10;25.10;;;;;;;2.78;84.56;101326.34;88068;1286;82592;-74
2021/11/11 02:37:51;;;;;;;40.40;26.20;;;;;;;2.81;84.58;101333.89;88036;1286;99025;-73
2021/11/11 02:40:16;;;;;;;37.90;25.90;;;;;;;2.85;84.55;101342.66;88020;1286;88034;-72
2021/11/11 02:42:30;;;;;;;42.10;26.70;;;;;;;2.84;84.54;101347.71;88061;1286;95568;-73
2021/11/11 02:44:46;;;;;;;38.40;24.60;;;;;;;2.81;84.40;101345.13;88017;1286;80169;-73
2021/11/11 02:46:56;;;;;;;39.50;26.40;;;;;;;2.77;84.54;101335.96;88049;1287;82496;-72
2021/11/11 02:49:05;;;;;;;44.90;27.00;;;;;;;2.80;84.56;101338.08;88030;1284;98679;-72
2021/11/11 02:51:21;;;;;;;45.90;27.20;;;;;;;2.79;84.54;101332.60;88038;1286;89117;-73
2021/11/11 02:53:31;;;;;;;40.30;26.00;;;;;;;2.78;84.58;101325.63;87965;1286;96227;-76
2021/11/11 02:55:43;;;;;;;42.20;26.60;;;;;;;2.77;84.69;101329.98;87971;1289;80423;-75
2021/11/11 02:57:57;;;;;;;40.70;26.30;;;;;;;2.77;84.57;101330.27;88002;1283;83454;-72
2021/11/11 03:00:14;;;;;;;40.80;26.30;;;;;;;2.77;84.75;101321.56;88036;1286;97397;-74
2021/11/11 03:02:30;;;;;;;42.00;26.20;;;;;;;2.78;84.61;101310.62;87968;1284;88701;-75
2021/11/11 03:04:45;;;;;;;43.00;25.80;;;;;;;2.77;84.72;101312.46;87859;1289;93828;-75
2021/11/11 03:06:57;;;;;;;43.90;25.90;;;;;;;2.77;84.75;101310.02;87838;1289;82031;-75
2021/11/11 03:09:07;;;;;;;41.70;25.10;;;;;;;2.78;84.88;101313.84;87793;1289;81827;-74
2021/11/11 03:11:22;;;;;;;41.40;25.30;;;;;;;2.78;84.90;101315.66;87934;1284;99235;-75
2021/11/11 03:13:34;;;;;;;40.60;25.60;;;;;;;2.78;84.90;101324.75;87706;1289;88709;-73
2021/11/11 03:15:46;;;;;;;42.70;25.70;;;;;;;2.76;84.85;101333.42;87972;1284;93002;-72
2021/11/11 03:17:56;;;;;;;42.80;25.60;;;;;;;2.77;84.86;101335.48;87916;1289;81068;-72
2021/11/11 03:20:09;;;;;;;42.30;25.50;;;;;;;2.76;84.89;101336.42;88037;1287;80006;-74
2021/11/11 03:22:20;;;;;;;36.50;24.10;;;;;;;2.74;84.76;101340.14;88900;1289;97141;-74
2021/11/11 03:24:30;;;;;;;39.20;24.70;;;;;;;2.73;84.78;101336.48;87850;1288;88348;-74
2021/11/11 03:26:46;;;;;;;41.50;24.20;;;;;;;2.75;84.90;101334.40;87860;1289;95730;-75
2021/11/11 03:28:56;;;;;;;40.60;25.30;;;;;;;2.75;84.84;101330.97;87856;1286;78349;-74
2021/11/11 03:31:08;;;;;;;37.70;24.60;;;;;;;2.75;84.79;101328.19;87911;1288;81502;-72
2021/11/11 03:33:18;;;;;;;40.80;24.30;;;;;;;2.69;84.93;101324.35;88010;1287;98691;-74
2021/11/11 03:35:35;;;;;;;35.90;23.80;;;;;;;2.64;84.93;101319.23;87992;1287;87225;-73
2021/11/11 03:37:49;;;;;;;38.80;24.90;;;;;;;2.61;84.74;101321.57;87744;1287;93627;-73
2021/11/11 03:39:58;;;;;;;38.30;25.30;;;;;;;2.60;84.74;101314.55;87929;1289;79581;-73
2021/11/11 03:42:10;;;;;;;38.50;25.10;;;;;;;2.60;84.96;101314.02;87889;1285;81966;-75
2021/11/11 03:44:22;;;;;;;36.60;23.60;;;;;;;2.58;84.76;101309.92;87868;1289;99228;-74
2021/11/11 03:46:34;;;;;;;;;;;;;;;2.54;84.83;101313.23;87995;1289;87363;-73
2021/11/11 03:48:47;;;;;;;38.80;23.20;;;;;;;2.52;84.87;101308.79;87908;1289;94379;-75
2021/11/11 03:50:57;;;;;;;32.90;22.60;;;;;;;2.48;84.83;101306.42;87873;1289;78808;-74
2021/11/11 03:53:06;;;;;;;41.80;23.50;;;;;;;2.48;84.84;101312.95;87867;1285;80229;-74
2021/11/11 03:55:17;;;;;;;37.10;23.70;;;;;;;2.46;84.98;101317.20;88009;1287;98624;-74
2021/11/11 03:57:30;;;;;;;38.10;23.50;;;;;;;2.42;84.89;101313.23;87972;1289;87408;-74
2021/11/11 03:59:39;;;;;;;36.80;22.50;;;;;;;2.38;84.70;101321.51;87835;1289;95176;-74
2021/11/11 04:01:49;;;;;;;34.70;22.70;;;;;;;2.34;84.72;101315.09;87938;1289;79249;-76
2021/11/11 04:04:03;;;;;;;40.80;25.50;;;;;;;2.32;84.85;101310.28;87985;1289;82878;-74
2021/11/11 04:06:12;;;;;;;34.80;23.30;;;;;;;2.30;84.75;101307.59;87994;1282;97816;-75
2021/11/11 04:08:24;;;;;;;39.90;24.20;;;;;;;2.29;84.75;101309.08;87999;1282;85587;-75
2021/11/11 04:10:33;;;;;;;37.80;22.80;;;;;;;2.28;84.81;101306.27;88020;1286;95333;-74
2021/11/11 04:12:45;;;;;;;37.40;23.80;;;;;;;2.29;84.85;101305.15;88025;1286;77339;-74
2021/11/11 04:14:59;;;;;;;36.20;24.10;;;;;;;2.25;84.90;101301.70;88026;1286;81605;-77
2021/11/11 04:17:10;;;;;;;34.00;22.80;;;;;;;2.16;84.77;101305.80;88047;1292;98250;-73
2021/11/11 04:19:22;;;;;;;36.80;23.70;;;;;;;2.12;84.73;101302.52;87845;1290;89951;-73
2021/11/11 04:21:35;;;;;;;35.90;22.40;;;;;;;2.10;85.00;101299.46;87997;1286;94147;-73
2021/11/11 04:23:46;;;;;;;40.60;25.20;;;;;;;2.08;84.97;101298.20;88007;1287;78147;-74
2021/11/11 04:26:04;;;;;;;33.90;23.90;;;;;;;2.10;85.01;101303.23;87981;1285;79471;-75
2021/11/11 04:28:18;;;;;;;40.10;24.20;;;;;;;2.13;85.13;101303.16;87984;1286;99419;-74
2021/11/11 04:30:28;;;;;;;38.60;24.30;;;;;;;2.18;85.31;101298.52;88031;1287;87546;-75
2021/11/11 04:32:37;;;;;;;37.00;24.70;;;;;;;2.22;85.29;101291.27;87997;1285;94725;-75
2021/11/11 04:34:55;;;;;;;36.70;23.50;;;;;;;2.25;85.27;101289.84;87998;1287;81957;-74
2021/11/11 04:42:20;;;;;;;39.30;23.00;;;;;;;2.32;85.48;101282.36;87981;1286;87684;-74
2021/11/11 04:44:32;;;;;;;39.50;25.80;;;;;;;2.36;85.37;101278.38;88002;1289;93240;-73
2021/11/11 04:47:01;;;;;;;37.60;24.20;;;;;;;2.39;85.35;101269.55;88017;1287;79600;-73
2021/11/11 04:49:51;;;;;;;36.20;23.80;;;;;;;2.41;85.44;101272.64;88022;1286;80651;-74
2021/11/11 04:59:53;;;;;;;40.70;23.40;;;;;;;2.37;85.48;101265.83;87685;1289;81209;-69
2021/11/11 05:02:21;;;;;;;35.80;23.10;;;;;;;2.32;85.29;101265.28;88000;1286;83015;-70
2021/11/11 05:04:31;;;;;;;37.00;22.70;;;;;;;2.29;85.36;101264.83;87988;1284;97878;-69
2021/11/11 05:06:46;;;;;;;38.70;23.60;;;;;;;2.22;85.39;101263.36;87995;1286;88246;-69
2021/11/11 05:08:59;;;;;;;38.50;23.60;;;;;;;2.15;85.25;101269.59;87995;1286;95343;-69
2021/11/11 05:11:10;;;;;;;36.80;23.60;;;;;;;2.06;85.05;101262.98;88016;1286;78640;-68
2021/11/11 05:13:22;;;;;;;36.50;23.30;;;;;;;2.00;85.21;101264.17;88070;1287;80957;-70
2021/11/11 05:15:32;;;;;;;36.70;22.60;;;;;;;1.96;85.08;101268.44;88005;1286;98315;-69
2021/11/11 05:17:45;;;;;;;37.50;23.40;;;;;;;1.91;85.15;101267.69;88016;1293;88751;-68
2021/11/11 05:19:57;;;;;;;37.80;24.40;;;;;;;1.90;85.26;101272.55;87988;1286;95913;-70
2021/11/11 05:22:08;;;;;;;40.50;24.50;;;;;;;1.91;85.53;101267.89;87979;1288;78081;-69
2021/11/11 05:24:17;;;;;;;41.10;25.90;;;;;;;1.94;85.59;101268.33;87815;1289;82420;-70
2021/11/11 05:26:29;;;;;;;38.60;23.80;;;;;;;1.98;85.63;101267.52;87991;1286;97003;-71
2021/11/11 05:28:39;;;;;;;39.80;24.30;;;;;;;2.00;85.56;101263.61;87980;1292;88846;-73
2021/11/11 05:30:48;;;;;;;37.30;24.00;;;;;;;2.03;85.44;101268.23;88010;1290;95754;-70
2021/11/11 05:33:01;;;;;;;36.20;23.50;;;;;;;2.04;85.56;101267.79;87971;1287;80646;-69
2021/11/11 05:35:13;;;;;;;37.30;24.10;;;;;;;2.04;85.49;101268.13;87988;1287;83422;-68
2021/11/11 05:37:22;;;;;;;35.20;22.00;;;;;;;2.02;85.60;101267.07;88002;1288;97944;-68
2021/11/11 05:39:35;;;;;;;34.20;21.30;;;;;;;1.98;85.46;101271.94;88037;1286;88675;-70
2021/11/11 05:41:48;;;;;;;35.10;22.70;;;;;;;1.95;85.39;101271.88;88029;1286;94858;-70
2021/11/11 05:43:59;;;;;;;33.10;23.30;;;;;;;1.96;85.46;101272.65;87944;1286;78129;-71
2021/11/11 05:46:13;;;;;;;33.20;22.00;;;;;;;1.97;85.49;101272.55;87990;1287;83099;-71
2021/11/11 05:48:22;;;;;;;34.10;21.50;;;;;;;1.96;85.46;101276.95;87956;1291;96319;-72
2021/11/11 05:50:36;;;;;;;35.20;21.50;;;;;;;1.91;85.43;101281.58;88048;1287;87788;-75
2021/11/11 05:52:46;;;;;;;35.80;21.70;;;;;;;1.87;85.45;101279.19;88067;1286;95928;-72
2021/11/11 05:54:55;;;;;;;35.20;22.10;;;;;;;1.86;85.42;101283.34;88049;1287;78508;-70
2021/11/11 05:57:10;;;;;;;36.40;22.30;;;;;;;1.89;85.49;101289.32;88054;1293;82939;-70
2021/11/11 05:59:21;;;;;;;36.20;23.00;;;;;;;1.92;85.61;101291.23;87989;1289;100682;-72
2021/11/11 06:01:31;;;;;;;39.70;23.20;;;;;;;1.96;85.55;101288.64;88074;1290;88708;-73
2021/11/11 06:03:40;;;;;;;37.60;22.60;;;;;;;2.00;85.52;101289.96;88067;1283;94698;-73
2021/11/11 06:05:54;;;;;;;36.00;23.20;;;;;;;2.02;85.52;101286.57;88021;1286;79773;-73
2021/11/11 06:08:03;;;;;;;36.00;22.10;;;;;;;2.04;85.57;101280.61;88074;1291;81325;-72
2021/11/11 06:10:15;;;;;;;32.10;22.10;;;;;;;2.05;85.45;101282.85;88049;1287;98104;-71
2021/11/11 06:12:28;;;;;;;34.70;22.30;;;;;;;2.07;85.53;101280.71;88081;1287;88682;-70
2021/11/11 06:14:37;;;;;;;33.50;21.60;;;;;;;2.05;85.53;101278.39;87969;1290;95381;-70
2021/11/11 06:16:47;;;;;;;32.30;22.80;;;;;;;2.02;85.50;101278.40;88042;1286;80358;-71
2021/11/11 06:18:56;;;;;;;32.10;21.30;;;;;;;2.04;85.42;101281.33;88056;1286;82276;-72
2021/11/11 06:21:06;;;;;;;35.20;23.40;;;;;;;2.04;85.44;101284.48;88026;1288;98740;-71
2021/11/11 06:23:18;;;;;;;34.10;22.30;;;;;;;2.06;85.31;101287.37;88065;1286;89127;-73
2021/11/11 06:25:32;;;;;;;34.90;22.40;;;;;;;2.07;85.32;101288.54;87970;1286;95662;-70
2021/11/11 06:27:42;;;;;;;34.60;21.10;;;;;;;2.08;85.31;101288.47;88054;1287;79487;-71
2021/11/11 06:29:52;;;;;;;35.90;23.00;;;;;;;2.08;85.44;101285.93;88036;1287;81440;-70
2021/11/11 06:32:03;;;;;;;32.80;21.60;;;;;;;2.09;85.22;101289.77;88100;1286;97916;-72
2021/11/11 06:34:13;;;;;;;34.40;21.30;;;;;;;2.09;85.33;101293.13;88047;1284;87177;-73
2021/11/11 06:36:23;;;;;;;31.10;22.10;;;;;;;2.10;85.13;101293.84;88057;1286;95179;-73
2021/11/11 06:38:36;;;;;;;29.80;20.70;;;;;;;2.16;85.31;101293.73;88011;1286;80921;-73
2021/11/11 06:40:47;;;;;;;30.40;20.80;;;;;;;2.35;85.37;101291.92;88025;1284;79921;-76
2021/11/11 06:43:00;;;;;;;32.90;21.70;;;;;;;2.65;85.34;101288.16;88068;1286;99458;-75
2021/11/11 06:45:14;;;;;;;33.70;22.20;;;;;;;2.94;84.89;101283.23;88021;1286;88092;-74
2021/11/11 06:47:27;;;;;;;31.50;20.70;;;;;;;3.08;84.95;101291.14;88021;1288;95915;-73
2021/11/11 06:49:37;;;;;;;30.90;20.20;;;;;;;3.14;84.87;101291.17;87987;1286;77707;-73
2021/11/11 06:51:47;;;;;;;35.90;22.80;;;;;;;3.20;84.66;101291.02;88082;1283;80048;-74
2021/11/11 06:54:01;;;;;;;33.70;21.60;;;;;;;3.30;84.73;101290.20;87993;1289;96775;-74
2021/11/11 06:56:11;;;;;;;33.60;22.10;;;;;;;3.60;84.72;101291.20;87934;1285;88129;-75
2021/11/11 06:58:24;;;;;;;32.30;20.70;;;;;;;4.06;84.90;101295.77;88048;1286;95719;-75
2021/11/11 07:00:33;;;;;;;33.50;21.40;;;;;;;4.48;84.65;101294.89;88041;1290;79631;-76
2021/11/11 07:02:44;;;;;;;31.80;21.10;;;;;;;4.94;84.36;101300.06;88090;1287;82968;-73
2021/11/11 07:04:56;;;;;;;28.70;21.50;;;;;;;5.59;84.24;101302.20;88051;1282;97075;-75
2021/11/11 07:07:08;;;;;;;27.70;20.60;;;;;;;6.40;84.51;101293.80;88066;1286;85798;-74
2021/11/11 07:09:18;;;;;;;30.90;20.90;;;;;;;7.17;83.63;101288.66;88018;1286;94137;-75
2021/11/11 07:11:30;;;;;;;28.40;21.00;;;;;;;7.78;82.88;101286.98;88062;1287;78725;-76
2021/11/11 07:13:43;;;;;;;28.50;21.00;;;;;;;8.32;82.15;101277.10;88069;1287;82482;-75
2021/11/11 07:15:53;;;;;;;27.20;21.30;;;;;;;8.89;81.35;101276.51;88034;1290;98656;-75
2021/11/11 07:18:05;;;;;;;27.10;20.60;;;;;;;9.31;80.56;101274.41;88041;1287;88601;-76
2021/11/11 07:20:19;;;;;;;27.40;21.70;;;;;;;9.67;79.80;101272.55;87978;1287;94427;-77
2021/11/11 07:22:33;;;;;;;25.80;20.00;;;;;;;10.12;79.06;101276.42;88018;1287;78676;-74
2021/11/11 07:24:46;;;;;;;24.90;19.70;;;;;;;10.52;78.22;101280.05;88043;1290;83375;-73
2021/11/11 07:27:01;;;;;;;26.10;20.60;;;;;;;10.81;77.15;101275.58;88068;1286;99730;-73
2021/11/11 07:29:18;;;;;;;26.50;21.30;;;;;;;11.16;76.21;101266.19;88030;1287;88795;-76
2021/11/11 07:31:27;;;;;;;25.30;21.00;;;;;;;11.40;75.59;101262.61;87979;1290;95225;-76
2021/11/11 07:33:37;;;;;;;27.40;20.30;;;;;;;11.60;74.61;101260.48;88059;1286;80596;-77
2021/11/11 07:35:53;;;;;;;24.20;19.30;;;;;;;11.89;73.70;101254.80;88057;1283;80892;-77
2021/11/11 07:38:06;;;;;;;24.60;20.40;;;;;;;11.98;72.42;101251.27;88056;1291;97273;-74
2021/11/11 07:40:20;;;;;;;26.10;20.80;;;;;;;11.74;71.48;101253.05;88044;1288;88007;-74
2021/11/11 07:42:29;;;;;;;25.30;19.80;;;;;;;10.96;71.54;101249.89;88060;1285;92782;-77
2021/11/11 07:44:38;;;;;;;23.60;19.60;;;;;;;10.56;71.67;101255.83;88013;1286;78211;-77
2021/11/11 07:46:50;;;;;;;25.10;20.40;;;;;;;10.57;71.48;101256.30;88035;1290;81854;-77
2021/11/11 07:48:59;;;;;;;23.90;19.50;;;;;;;10.80;70.93;101251.90;88014;1284;97040;-72
2021/11/11 07:51:09;;;;;;;24.60;20.10;;;;;;;11.29;70.84;101244.17;88001;1286;87565;-72
2021/11/11 07:53:19;;;;;;;28.10;22.50;;;;;;;11.83;70.32;101249.70;88019;1291;94219;-72
2021/11/11 07:55:28;;;;;;;26.00;19.30;;;;;;;12.35;69.77;101251.34;88029;1285;78567;-72
2021/11/11 07:57:40;;;;;;;24.10;19.60;;;;;;;12.51;68.18;101248.71;88055;1291;83179;-77
2021/11/11 07:59:51;;;;;;;24.50;19.10;;;;;;;12.21;67.45;101251.77;88057;1287;98819;-76
2021/11/11 08:02:04;;;;;;;22.80;19.50;;;;;;;12.06;67.99;101258.64;88054;1286;88719;-77
2021/11/11 08:04:13;;;;;;;24.50;19.50;;;;;;;12.65;67.67;101255.91;88048;1288;92682;-72
2021/11/11 08:06:22;;;;;;;23.60;20.20;;;;;;;13.07;67.32;101258.08;88038;1288;81312;-71
2021/11/11 08:08:32;;;;;;;23.20;20.00;;;;;;;13.08;66.99;101255.19;88044;1286;82743;-73
2021/11/11 08:10:42;;;;;;;24.90;21.20;;;;;;;12.50;66.59;101259.45;88045;1292;97499;-73
2021/11/11 08:12:53;;;;;;;27.70;21.60;;;;;;;11.60;66.78;101258.48;88046;1286;89245;-77
2021/11/11 08:15:02;;;;;;;27.20;21.20;;;;;;;10.84;67.29;101255.13;88065;1291;93581;-77
2021/11/11 08:17:15;;;;;;;25.10;21.30;;;;;;;10.24;67.85;101262.44;88076;1287;78243;-72
2021/11/11 08:19:24;;;;;;;25.50;20.40;;;;;;;9.76;68.47;101261.31;88059;1287;83547;-72
2021/11/11 08:21:34;;;;;;;25.30;21.30;;;;;;;9.49;69.12;101253.09;88017;1287;98592;-72
2021/11/11 08:23:43;;;;;;;25.80;21.00;;;;;;;9.45;69.46;101249.52;88029;1283;88747;-78
2021/11/11 08:25:53;;;;;;;26.00;21.40;;;;;;;9.64;69.95;101251.09;88037;1292;95389;-78
2021/11/11 08:28:02;;;;;;;26.40;21.30;;;;;;;10.48;69.90;101249.33;88062;1284;78943;-73
2021/11/11 08:30:16;;;;;;;26.70;22.10;;;;;;;11.26;69.44;101247.26;88068;1289;83353;-72
2021/11/11 08:32:26;;;;;;;27.80;21.70;;;;;;;12.06;68.42;101247.70;88041;1288;97914;-78
2021/11/11 08:34:36;;;;;;;26.70;21.10;;;;;;;12.56;67.43;101240.52;88083;1288;87730;-78
2021/11/11 08:36:50;;;;;;;26.90;21.20;;;;;;;12.24;66.92;101234.95;87981;1287;93784;-78
2021/11/11 08:39:05;;;;;;;24.50;20.90;;;;;;;12.07;66.67;101236.09;88001;1292;78102;-78
2021/11/11 08:41:15;;;;;;;27.80;22.30;;;;;;;11.78;66.73;101225.98;88091;1287;83337;-78
2021/11/11 08:43:28;;;;;;;25.30;22.20;;;;;;;11.39;66.94;101226.08;88055;1286;98503;-71
2021/11/11 08:45:40;;;;;;;25.10;21.80;;;;;;;11.62;67.20;101229.38;88050;1290;88132;-71
2021/11/11 08:47:55;;;;;;;25.50;21.50;;;;;;;12.31;66.76;101222.91;88085;1290;95443;-77
2021/11/11 08:50:07;;;;;;;23.60;20.70;;;;;;;12.89;66.68;101219.77;88074;1287;78165;-74
2021/11/11 08:52:19;;;;;;;25.90;21.60;;;;;;;13.53;66.18;101223.40;88100;1287;83147;-76
2021/11/11 08:54:30;;;;;;;24.80;21.40;;;;;;;13.98;65.50;101228.36;87987;1292;98177;-76
2021/11/11 08:56:48;;;;;;;24.50;21.60;;;;;;;14.29;65.20;101228.99;87855;1295;87826;-74
2021/11/11 08:59:01;;;;;;;25.40;21.70;;;;;;;14.56;64.46;101222.98;87878;1288;95292;-73
2021/11/11 09:01:14;;;;;;;26.00;21.40;;;;;;;14.87;63.70;101216.09;87992;1289;79643;-73
2021/11/11 09:03:29;;;;;;;25.00;22.20;;;;;;;15.18;63.32;101207.32;88013;1286;82134;-70
2021/11/11 09:05:40;;;;;;;24.80;20.40;;;;;;;15.52;62.94;101201.17;88057;1288;98080;-70
2021/11/11 09:07:57;;;;;;;25.00;21.60;;;;;;;15.70;62.48;101199.67;88074;1285;89854;-70
2021/11/11 09:10:10;;;;;;;22.40;19.00;;;;;;;15.93;61.87;101198.04;88038;1287;94148;-71
2021/11/11 09:12:20;;;;;;;21.90;19.00;;;;;;;16.06;61.40;101200.65;88080;1286;78521;-72
2021/11/11 09:14:34;;;;;;;25.30;20.10;;;;;;;16.03;61.05;101202.01;88064;1289;82561;-71
2021/11/11 09:16:50;;;;;;;24.20;19.50;;;;;;;16.07;60.57;101195.98;88053;1292;98432;-73
2021/11/11 09:19:00;;;;;;;22.60;19.70;;;;;;;16.08;60.46;101197.33;88051;1291;89168;-73
2021/11/11 09:21:16;;;;;;;21.40;19.10;;;;;;;15.68;60.03;101201.34;88011;1291;93773;-74
2021/11/11 09:23:28;;;;;;;21.80;19.40;;;;;;;15.71;59.91;101204.16;88046;1286;79474;-70
2021/11/11 09:25:38;;;;;;;22.60;20.20;;;;;;;15.85;59.80;101205.09;88062;1292;82303;-70
2021/11/11 09:27:54;;;;;;;21.80;19.50;;;;;;;16.05;59.54;101205.66;88069;1287;98470;-71
2021/11/11 09:30:12;;;;;;;22.00;19.70;;;;;;;16.09;58.97;101201.36;88033;1290;89384;-72
2021/11/11 09:32:21;;;;;;;24.10;20.70;;;;;;;16.16;58.82;101212.88;87989;1287;93449;-62
2021/11/11 09:34:33;;;;;;;23.50;20.50;;;;;;;16.00;58.48;101208.88;88074;1289;78648;-71
2021/11/11 09:36:47;;;;;;;23.40;21.00;;;;;;;16.12;58.13;101208.48;88032;1285;80031;-69
2021/11/11 09:39:05;;;;;;;26.30;21.30;;;;;;;16.18;58.02;101206.04;88030;1284;98016;-69
2021/11/11 09:41:15;;;;;;;27.60;20.40;;;;;;;16.13;57.64;101206.98;88014;1289;88391;-70
2021/11/11 09:43:28;;;;;;;25.00;21.50;;;;;;;16.21;57.61;101204.59;87984;1288;93264;-70
2021/11/11 09:45:38;;;;;;;23.00;20.60;;;;;;;16.13;57.38;101202.03;87857;1288;78316;-70
2021/11/11 09:47:50;;;;;;;22.60;20.20;;;;;;;15.98;57.36;101197.98;88048;1287;82942;-71
2021/11/11 09:50:06;;;;;;;27.50;20.30;;;;;;;16.03;57.16;101192.02;88009;1290;98424;-74
2021/11/11 09:52:16;;;;;;;25.60;20.80;;;;;;;15.98;57.02;101190.25;88005;1287;89613;-71
2021/11/11 09:59:30;;;;;;;23.00;19.50;;;;;;;15.74;57.11;101186.70;88068;1287;83125;-72
2021/11/11 10:01:45;;;;;;;23.60;19.80;;;;;;;15.68;56.73;101186.13;88077;1282;96513;-70
2021/11/11 10:03:56;;;;;;;23.00;20.20;;;;;;;15.42;56.63;101185.23;88003;1287;88677;-70
2021/11/11 10:06:10;;;;;;;24.90;21.00;;;;;;;15.00;56.83;101184.34;87973;1292;94915;-69
2021/11/11 10:08:42;;;;;;;26.80;21.80;;;;;;;14.42;57.39;101190.47;87862;1293;81978;-70
2021/11/11 10:10:52;;;;;;;25.30;21.60;;;;;;;13.77;57.79;101197.30;88060;1290;83784;-70
2021/11/11 10:13:24;;;;;;;27.40;21.90;;;;;;;13.27;58.08;101195.98;88070;1289;99288;-70
2021/11/11 10:16:00;;;;;;;25.60;22.30;;;;;;;12.83;58.53;101191.06;88023;1288;88695;-71
2021/11/11 10:18:38;;;;;;;26.10;21.30;;;;;;;12.44;59.06;101194.09;88029;1287;96003;-71
2021/11/11 10:20:54;;;;;;;26.90;21.50;;;;;;;12.01;59.76;101196.31;88065;1286;78283;-65
2021/11/11 10:23:23;;;;;;;26.30;21.70;;;;;;;11.76;60.30;101201.43;88004;1287;80715;-70
2021/11/11 10:25:32;;;;;;;30.00;21.20;;;;;;;11.48;60.85;101201.81;88060;1287;98376;-70